sensor_id;sensor_type;location;lat;lon;timestamp;pressure;altitude;pressure_sealevel;temperature;humidity
29505;BME280;16452;54.174;12.092;2022-10-18T00:01:53;102226.09;;;18.13;100.00
29505;BME280;16452;54.174;12.092;2022-10-18T00:04:19;102226.84;;;18.15;100.00
29505;BME280;16452;54.174;12.092;2022-10-18T00:06:45;102232.41;;;18.10;100.00
29505;BME280;16452;54.174;12.092;2022-10-18T00:09:11;102220.72;;;18.14;100.00
29505;BME280;16452;54.174;12.092;2022-10-18T00:11:37;102222.34;;;18.17;100.00
29505;BME280;16452;54.174;12.092;2022-10-18T00:14:03;102219.97;;;18.12;100.00
29505;BME280;16452;54.174;12.092;2022-10-18T00:16:28;102225.44;;;18.09;100.00
29505;BME280;16452;54.174;12.092;2022-10-18T00:18:54;102235.56;;;17.87;100.00
29505;BME280;16452;54.174;12.092;2022-10-18T00:21:24;102233.16;;;17.98;100.00
29505;BME280;16452;54.174;12.092;2022-10-18T00:23:51;102237.38;;;18.00;100.00
29505;BME280;16452;54.174;12.092;2022-10-18T00:26:24;102238.72;;;18.08;100.00
29505;BME280;16452;54.174;12.092;2022-10-18T00:28:54;102247.47;;;18.08;100.00
29505;BME280;16452;54.174;12.092;2022-10-18T00:31:24;102238.63;;;18.09;100.00
29505;BME280;16452;54.174;12.092;2022-10-18T00:33:54;102238.13;;;18.02;100.00
29505;BME280;16452;54.174;12.092;2022-10-18T00:36:20;102240.88;;;18.01;100.00
29505;BME280;16452;54.174;12.092;2022-10-18T00:38:47;102237.72;;;17.94;100.00
29505;BME280;16452;54.174;12.092;2022-10-18T00:41:20;102236.53;;;18.00;100.00
29505;BME280;16452;54.174;12.092;2022-10-18T00:44:03;102237.13;;;18.05;100.00
29505;BME280;16452;54.174;12.092;2022-10-18T00:46:38;102237.84;;;17.93;100.00
29505;BME280;16452;54.174;12.092;2022-10-18T00:49:31;102234.59;;;17.74;100.00
29505;BME280;16452;54.174;12.092;2022-10-18T00:52:27;102244.50;;;17.84;100.00
29505;BME280;16452;54.174;12.092;2022-10-18T00:54:55;102234.88;;;17.83;100.00
29505;BME280;16452;54.174;12.092;2022-10-18T00:57:23;102240.28;;;17.82;100.00
29505;BME280;16452;54.174;12.092;2022-10-18T00:59:49;102243.16;;;17.77;100.00
29505;BME280;16452;54.174;12.092;2022-10-18T01:02:16;102250.81;;;17.82;100.00
29505;BME280;16452;54.174;12.092;2022-10-18T01:04:46;102248.19;;;17.82;100.00
29505;BME280;16452;54.174;12.092;2022-10-18T01:10:08;102248.78;;;17.71;100.00
29505;BME280;16452;54.174;12.092;2022-10-18T01:13:03;102243.28;;;17.76;100.00
29505;BME280;16452;54.174;12.092;2022-10-18T01:16:28;102238.25;;;17.71;100.00
29505;BME280;16452;54.174;12.092;2022-10-18T01:21:43;102248.03;;;17.69;100.00
29505;BME280;16452;54.174;12.092;2022-10-18T01:30:58;102250.25;;;17.61;100.00
29505;BME280;16452;54.174;12.092;2022-10-18T01:33:56;102257.91;;;17.65;100.00
29505;BME280;16452;54.174;12.092;2022-10-18T01:36:33;102259.69;;;17.65;100.00
29505;BME280;16452;54.174;12.092;2022-10-18T01:39:05;102256.78;;;17.54;100.00
29505;BME280;16452;54.174;12.092;2022-10-18T01:41:34;102266.94;;;17.46;100.00
29505;BME280;16452;54.174;12.092;2022-10-18T01:44:04;102256.13;;;17.50;100.00
29505;BME280;16452;54.174;12.092;2022-10-18T01:46:32;102263.09;;;17.36;100.00
29505;BME280;16452;54.174;12.092;2022-10-18T01:48:58;102260.88;;;17.44;100.00
29505;BME280;16452;54.174;12.092;2022-10-18T01:51:30;102260.66;;;17.33;100.00
29505;BME280;16452;54.174;12.092;2022-10-18T01:53:57;102260.84;;;17.30;100.00
29505;BME280;16452;54.174;12.092;2022-10-18T02:10:38;102265.41;;;17.10;100.00
29505;BME280;16452;54.174;12.092;2022-10-18T02:13:06;102257.69;;;17.23;100.00
29505;BME280;16452;54.174;12.092;2022-10-18T02:15:38;102257.69;;;17.23;100.00
29505;BME280;16452;54.174;12.092;2022-10-18T02:18:12;102249.88;;;17.21;100.00
29505;BME280;16452;54.174;12.092;2022-10-18T02:20:40;102245.03;;;16.98;100.00
29505;BME280;16452;54.174;12.092;2022-10-18T02:23:07;102241.44;;;17.15;100.00
29505;BME280;16452;54.174;12.092;2022-10-18T02:25:36;102238.03;;;17.13;100.00
29505;BME280;16452;54.174;12.092;2022-10-18T02:28:04;102244.28;;;17.12;100.00
29505;BME280;16452;54.174;12.092;2022-10-18T02:30:43;102249.69;;;17.09;100.00
29505;BME280;16452;54.174;12.092;2022-10-18T02:33:30;102255.81;;;17.09;100.00
29505;BME280;16452;54.174;12.092;2022-10-18T02:36:04;102254.88;;;17.10;100.00
29505;BME280;16452;54.174;12.092;2022-10-18T02:38:31;102258.44;;;17.09;100.00
29505;BME280;16452;54.174;12.092;2022-10-18T02:40:58;102260.91;;;17.12;100.00
29505;BME280;16452;54.174;12.092;2022-10-18T02:43:24;102259.47;;;17.07;100.00
29505;BME280;16452;54.174;12.092;2022-10-18T02:45:50;102259.91;;;16.99;100.00
29505;BME280;16452;54.174;12.092;2022-10-18T02:48:16;102252.66;;;16.87;100.00
29505;BME280;16452;54.174;12.092;2022-10-18T02:50:41;102261.41;;;16.88;100.00
29505;BME280;16452;54.174;12.092;2022-10-18T02:53:07;102263.63;;;16.95;100.00
29505;BME280;16452;54.174;12.092;2022-10-18T02:55:33;102270.59;;;16.96;100.00
29505;BME280;16452;54.174;12.092;2022-10-18T02:57:58;102279.00;;;16.87;100.00
29505;BME280;16452;54.174;12.092;2022-10-18T03:00:24;102274.41;;;16.91;100.00
29505;BME280;16452;54.174;12.092;2022-10-18T03:02:50;102277.22;;;16.88;100.00
29505;BME280;16452;54.174;12.092;2022-10-18T03:05:17;102278.81;;;16.90;100.00
29505;BME280;16452;54.174;12.092;2022-10-18T03:07:47;102278.91;;;16.89;100.00
29505;BME280;16452;54.174;12.092;2022-10-18T03:10:13;102283.06;;;16.77;100.00
29505;BME280;16452;54.174;12.092;2022-10-18T03:12:39;102279.91;;;16.70;100.00
29505;BME280;16452;54.174;12.092;2022-10-18T03:15:05;102283.75;;;16.80;100.00
29505;BME280;16452;54.174;12.092;2022-10-18T03:17:30;102286.78;;;16.73;100.00
29505;BME280;16452;54.174;12.092;2022-10-18T03:19:56;102284.84;;;16.76;100.00
29505;BME280;16452;54.174;12.092;2022-10-18T03:22:22;102291.00;;;16.60;100.00
29505;BME280;16452;54.174;12.092;2022-10-18T03:24:49;102282.63;;;16.84;100.00
29505;BME280;16452;54.174;12.092;2022-10-18T03:27:15;102283.78;;;16.63;100.00
29505;BME280;16452;54.174;12.092;2022-10-18T03:29:41;102286.41;;;16.63;100.00
29505;BME280;16452;54.174;12.092;2022-10-18T03:32:06;102284.41;;;16.51;100.00
29505;BME280;16452;54.174;12.092;2022-10-18T03:34:32;102281.22;;;16.62;100.00
29505;BME280;16452;54.174;12.092;2022-10-18T03:36:58;102288.03;;;16.66;100.00
29505;BME280;16452;54.174;12.092;2022-10-18T03:39:25;102283.78;;;16.63;100.00
29505;BME280;16452;54.174;12.092;2022-10-18T03:41:50;102271.63;;;16.61;100.00
29505;BME280;16452;54.174;12.092;2022-10-18T03:44:16;102273.94;;;16.67;100.00
29505;BME280;16452;54.174;12.092;2022-10-18T03:46:42;102267.06;;;16.64;100.00
29505;BME280;16452;54.174;12.092;2022-10-18T03:49:07;102274.13;;;16.47;100.00
29505;BME280;16452;54.174;12.092;2022-10-18T03:51:33;102273.53;;;16.41;100.00
29505;BME280;16452;54.174;12.092;2022-10-18T03:53:59;102269.22;;;16.56;100.00
29505;BME280;16452;54.174;12.092;2022-10-18T03:56:25;102265.13;;;16.51;100.00
29505;BME280;16452;54.174;12.092;2022-10-18T03:58:51;102269.09;;;16.42;100.00
29505;BME280;16452;54.174;12.092;2022-10-18T04:01:17;102271.25;;;16.51;100.00
29505;BME280;16452;54.174;12.092;2022-10-18T04:03:42;102270.09;;;16.39;100.00
29505;BME280;16452;54.174;12.092;2022-10-18T04:06:08;102275.28;;;16.41;100.00
29505;BME280;16452;54.174;12.092;2022-10-18T04:08:35;102276.16;;;16.41;100.00
29505;BME280;16452;54.174;12.092;2022-10-18T04:11:05;102268.56;;;16.35;100.00
29505;BME280;16452;54.174;12.092;2022-10-18T04:13:33;102264.38;;;16.31;100.00
29505;BME280;16452;54.174;12.092;2022-10-18T04:15:59;102273.69;;;16.21;100.00
29505;BME280;16452;54.174;12.092;2022-10-18T04:18:27;102270.19;;;16.21;100.00
29505;BME280;16452;54.174;12.092;2022-10-18T04:20:53;102269.81;;;16.28;100.00
29505;BME280;16452;54.174;12.092;2022-10-18T04:23:18;102275.16;;;16.27;100.00
29505;BME280;16452;54.174;12.092;2022-10-18T04:25:44;102261.03;;;16.12;100.00
29505;BME280;16452;54.174;12.092;2022-10-18T04:28:10;102265.56;;;16.09;100.00
29505;BME280;16452;54.174;12.092;2022-10-18T04:30:35;102266.34;;;15.93;100.00
29505;BME280;16452;54.174;12.092;2022-10-18T04:33:01;102258.72;;;16.06;100.00
29505;BME280;16452;54.174;12.092;2022-10-18T04:35:27;102253.03;;;15.96;100.00
29505;BME280;16452;54.174;12.092;2022-10-18T04:37:53;102249.72;;;16.10;100.00
29505;BME280;16452;54.174;12.092;2022-10-18T04:40:19;102261.22;;;16.08;100.00
29505;BME280;16452;54.174;12.092;2022-10-18T04:42:46;102252.91;;;15.99;100.00
29505;BME280;16452;54.174;12.092;2022-10-18T04:45:12;102255.00;;;15.93;100.00
29505;BME280;16452;54.174;12.092;2022-10-18T04:47:37;102254.31;;;15.89;100.00
29505;BME280;16452;54.174;12.092;2022-10-18T04:50:04;102255.84;;;15.93;100.00
29505;BME280;16452;54.174;12.092;2022-10-18T04:52:30;102252.97;;;15.98;100.00
29505;BME280;16452;54.174;12.092;2022-10-18T04:54:56;102252.13;;;15.80;100.00
29505;BME280;16452;54.174;12.092;2022-10-18T04:57:22;102252.13;;;15.80;100.00
29505;BME280;16452;54.174;12.092;2022-10-18T04:59:47;102251.75;;;15.71;100.00
29505;BME280;16452;54.174;12.092;2022-10-18T05:02:13;102242.63;;;15.78;100.00
29505;BME280;16452;54.174;12.092;2022-10-18T05:04:39;102248.88;;;15.75;100.00
29505;BME280;16452;54.174;12.092;2022-10-18T05:07:04;102243.25;;;15.83;100.00
29505;BME280;16452;54.174;12.092;2022-10-18T05:09:31;102236.22;;;15.83;100.00
29505;BME280;16452;54.174;12.092;2022-10-18T05:11:57;102239.78;;;15.82;100.00
29505;BME280;16452;54.174;12.092;2022-10-18T05:14:23;102229.25;;;15.82;100.00
29505;BME280;16452;54.174;12.092;2022-10-18T05:16:48;102227.38;;;15.67;100.00
29505;BME280;16452;54.174;12.092;2022-10-18T05:19:14;102227.78;;;15.77;100.00
29505;BME280;16452;54.174;12.092;2022-10-18T05:21:40;102233.19;;;15.74;100.00
29505;BME280;16452;54.174;12.092;2022-10-18T05:24:06;102231.81;;;15.67;100.00
29505;BME280;16452;54.174;12.092;2022-10-18T05:26:31;102241.78;;;15.60;100.00
29505;BME280;16452;54.174;12.092;2022-10-18T05:28:57;102237.88;;;15.67;100.00
29505;BME280;16452;54.174;12.092;2022-10-18T05:31:23;102236.72;;;15.73;100.00
29505;BME280;16452;54.174;12.092;2022-10-18T05:33:49;102234.03;;;15.74;100.00
29505;BME280;16452;54.174;12.092;2022-10-18T05:36:14;102222.00;;;15.51;100.00
29505;BME280;16452;54.174;12.092;2022-10-18T05:38:41;102225.22;;;15.39;100.00
29505;BME280;16452;54.174;12.092;2022-10-18T05:41:07;102217.56;;;15.53;100.00
29505;BME280;16452;54.174;12.092;2022-10-18T05:43:33;102218.53;;;15.51;100.00
29505;BME280;16452;54.174;12.092;2022-10-18T05:45:59;102217.34;;;15.39;100.00
29505;BME280;16452;54.174;12.092;2022-10-18T05:48:25;102221.69;;;15.40;100.00
29505;BME280;16452;54.174;12.092;2022-10-18T05:50:51;102228.41;;;15.46;100.00
29505;BME280;16452;54.174;12.092;2022-10-18T05:53:17;102228.47;;;15.44;100.00
29505;BME280;16452;54.174;12.092;2022-10-18T05:55:42;102225.56;;;15.50;100.00
29505;BME280;16452;54.174;12.092;2022-10-18T05:58:08;102233.28;;;15.55;100.00
29505;BME280;16452;54.174;12.092;2022-10-18T06:00:35;102233.28;;;15.72;100.00
29505;BME280;16452;54.174;12.092;2022-10-18T06:03:00;102234.34;;;15.68;100.00
29505;BME280;16452;54.174;12.092;2022-10-18T06:05:26;102236.22;;;15.66;100.00
29505;BME280;16452;54.174;12.092;2022-10-18T06:07:52;102237.75;;;15.70;100.00
29505;BME280;16452;54.174;12.092;2022-10-18T06:10:18;102246.19;;;15.77;100.00
29505;BME280;16452;54.174;12.092;2022-10-18T06:12:43;102244.66;;;15.90;100.00
29505;BME280;16452;54.174;12.092;2022-10-18T06:15:09;102252.66;;;15.87;100.00
29505;BME280;16452;54.174;12.092;2022-10-18T06:17:35;102249.97;;;15.88;100.00
29505;BME280;16452;54.174;12.092;2022-10-18T06:20:01;102256.06;;;15.72;100.00
29505;BME280;16452;54.174;12.092;2022-10-18T06:22:26;102262.88;;;15.93;100.00
29505;BME280;16452;54.174;12.092;2022-10-18T06:24:52;102264.03;;;15.87;100.00
29505;BME280;16452;54.174;12.092;2022-10-18T06:27:18;102270.84;;;15.91;100.00
29505;BME280;16452;54.174;12.092;2022-10-18T06:29:44;102268.59;;;16.01;100.00
29505;BME280;16452;54.174;12.092;2022-10-18T06:32:09;102276.25;;;16.06;100.00
29505;BME280;16452;54.174;12.092;2022-10-18T06:34:35;102282.38;;;15.89;100.00
29505;BME280;16452;54.174;12.092;2022-10-18T06:37:01;102287.69;;;16.05;100.00
29505;BME280;16452;54.174;12.092;2022-10-18T06:39:26;102285.63;;;16.11;100.00
29505;BME280;16452;54.174;12.092;2022-10-18T06:41:52;102285.06;;;15.87;100.00
29505;BME280;16452;54.174;12.092;2022-10-18T06:44:19;102291.78;;;16.10;100.00
29505;BME280;16452;54.174;12.092;2022-10-18T06:46:47;102284.13;;;16.23;100.00
29505;BME280;16452;54.174;12.092;2022-10-18T06:49:14;102289.47;;;16.21;100.00
29505;BME280;16452;54.174;12.092;2022-10-18T06:51:43;102287.69;;;15.87;100.00
29505;BME280;16452;54.174;12.092;2022-10-18T06:54:10;102292.34;;;15.82;100.00
29505;BME280;16452;54.174;12.092;2022-10-18T06:56:36;102289.78;;;15.98;100.00
29505;BME280;16452;54.174;12.092;2022-10-18T06:59:03;102292.03;;;15.88;100.00
29505;BME280;16452;54.174;12.092;2022-10-18T07:01:29;102287.38;;;15.93;100.00
29505;BME280;16452;54.174;12.092;2022-10-18T07:03:55;102287.81;;;15.84;100.00
29505;BME280;16452;54.174;12.092;2022-10-18T07:06:22;102284.69;;;15.95;100.00
29505;BME280;16452;54.174;12.092;2022-10-18T07:08:49;102288.00;;;15.98;100.00
29505;BME280;16452;54.174;12.092;2022-10-18T07:11:23;102282.81;;;16.14;100.00
29505;BME280;16452;54.174;12.092;2022-10-18T07:13:50;102286.22;;;16.16;100.00
29505;BME280;16452;54.174;12.092;2022-10-18T07:16:17;102287.69;;;16.22;100.00
29505;BME280;16452;54.174;12.092;2022-10-18T07:18:49;102293.19;;;16.34;100.00
29505;BME280;16452;54.174;12.092;2022-10-18T07:21:19;102304.31;;;16.22;100.00
29505;BME280;16452;54.174;12.092;2022-10-18T07:23:46;102307.72;;;16.41;100.00
29505;BME280;16452;54.174;12.092;2022-10-18T07:26:22;102315.28;;;16.65;100.00
29505;BME280;16452;54.174;12.092;2022-10-18T07:28:52;102310.13;;;16.79;100.00
29505;BME280;16452;54.174;12.092;2022-10-18T07:31:20;102314.75;;;16.91;100.00
29505;BME280;16452;54.174;12.092;2022-10-18T07:33:47;102321.47;;;16.97;100.00
29505;BME280;16452;54.174;12.092;2022-10-18T07:36:13;102320.97;;;17.06;100.00
29505;BME280;16452;54.174;12.092;2022-10-18T07:38:39;102317.16;;;17.11;100.00
29505;BME280;16452;54.174;12.092;2022-10-18T07:41:07;102307.16;;;17.18;100.00
29505;BME280;16452;54.174;12.092;2022-10-18T07:43:34;102315.88;;;17.18;100.00
29505;BME280;16452;54.174;12.092;2022-10-18T07:46:03;102317.16;;;17.27;100.00
29505;BME280;16452;54.174;12.092;2022-10-18T07:48:30;102322.19;;;17.16;100.00
29505;BME280;16452;54.174;12.092;2022-10-18T07:51:00;102332.97;;;17.27;100.00
29505;BME280;16452;54.174;12.092;2022-10-18T07:53:29;102341.31;;;17.35;100.00
29505;BME280;16452;54.174;12.092;2022-10-18T07:56:00;102327.09;;;17.38;100.00
29505;BME280;16452;54.174;12.092;2022-10-18T07:58:26;102334.75;;;17.42;100.00
29505;BME280;16452;54.174;12.092;2022-10-18T08:00:52;102339.78;;;17.47;100.00
29505;BME280;16452;54.174;12.092;2022-10-18T08:03:19;102345.72;;;17.50;100.00
29505;BME280;16452;54.174;12.092;2022-10-18T08:05:52;102342.75;;;17.56;100.00
29505;BME280;16452;54.174;12.092;2022-10-18T08:08:19;102342.09;;;17.53;100.00
29505;BME280;16452;54.174;12.092;2022-10-18T08:10:45;102338.31;;;17.57;100.00
29505;BME280;16452;54.174;12.092;2022-10-18T08:13:11;102337.41;;;17.58;100.00
29505;BME280;16452;54.174;12.092;2022-10-18T08:15:37;102339.06;;;17.59;100.00
29505;BME280;16452;54.174;12.092;2022-10-18T08:18:03;102325.00;;;17.60;100.00
29505;BME280;16452;54.174;12.092;2022-10-18T08:20:28;102324.06;;;17.61;100.00
29505;BME280;16452;54.174;12.092;2022-10-18T08:22:56;102316.84;;;17.64;100.00
29505;BME280;16452;54.174;12.092;2022-10-18T08:25:22;102324.56;;;17.68;100.00
29505;BME280;16452;54.174;12.092;2022-10-18T08:27:48;102330.50;;;17.71;100.00
29505;BME280;16452;54.174;12.092;2022-10-18T08:30:13;102313.09;;;17.69;100.00
29505;BME280;16452;54.174;12.092;2022-10-18T08:32:39;102317.94;;;17.76;100.00
29505;BME280;16452;54.174;12.092;2022-10-18T08:35:06;102318.53;;;17.81;100.00
29505;BME280;16452;54.174;12.092;2022-10-18T08:37:32;102323.69;;;17.83;100.00
29505;BME280;16452;54.174;12.092;2022-10-18T08:39:58;102321.03;;;17.83;100.00
29505;BME280;16452;54.174;12.092;2022-10-18T08:43:14;102311.69;;;17.93;100.00
29505;BME280;16452;54.174;12.092;2022-10-18T08:45:45;102316.78;;;17.96;100.00
29505;BME280;16452;54.174;12.092;2022-10-18T08:48:29;102319.81;;;18.04;100.00
29505;BME280;16452;54.174;12.092;2022-10-18T08:50:57;102325.94;;;18.04;100.00
29505;BME280;16452;54.174;12.092;2022-10-18T08:53:50;102320.13;;;18.14;100.00
29505;BME280;16452;54.174;12.092;2022-10-18T08:56:18;102325.59;;;18.11;100.00
29505;BME280;16452;54.174;12.092;2022-10-18T08:58:49;102330.44;;;18.02;100.00
29505;BME280;16452;54.174;12.092;2022-10-18T09:04:16;102328.59;;;18.04;100.00
29505;BME280;16452;54.174;12.092;2022-10-18T09:12:39;102334.09;;;18.16;99.91
29505;BME280;16452;54.174;12.092;2022-10-18T09:24:28;102324.41;;;18.30;96.78
29505;BME280;16452;54.174;12.092;2022-10-18T09:27:04;102330.16;;;18.37;95.68
29505;BME280;16452;54.174;12.092;2022-10-18T09:30:09;102341.13;;;18.45;95.90
29505;BME280;16452;54.174;12.092;2022-10-18T09:32:52;102345.16;;;18.36;95.16
29505;BME280;16452;54.174;12.092;2022-10-18T09:35:32;102327.25;;;18.41;96.44
29505;BME280;16452;54.174;12.092;2022-10-18T09:38:09;102337.78;;;18.41;96.07
29505;BME280;16452;54.174;12.092;2022-10-18T09:41:18;102327.06;;;18.44;95.12
29505;BME280;16452;54.174;12.092;2022-10-18T09:46:39;102329.88;;;18.41;94.33
29505;BME280;16452;54.174;12.092;2022-10-18T09:49:18;102320.94;;;18.44;94.37
29505;BME280;16452;54.174;12.092;2022-10-18T09:51:48;102323.59;;;18.44;94.13
29505;BME280;16452;54.174;12.092;2022-10-18T09:54:23;102320.13;;;18.14;94.27
29505;BME280;16452;54.174;12.092;2022-10-18T09:57:22;102312.25;;;17.98;96.43
29505;BME280;16452;54.174;12.092;2022-10-18T09:59:51;102320.19;;;17.82;96.39
29505;BME280;16452;54.174;12.092;2022-10-18T10:02:24;102319.03;;;17.72;97.43
29505;BME280;16452;54.174;12.092;2022-10-18T10:04:51;102327.69;;;17.43;98.97
29505;BME280;16452;54.174;12.092;2022-10-18T10:07:34;102333.31;;;17.37;99.14
29505;BME280;16452;54.174;12.092;2022-10-18T10:10:26;102337.72;;;17.36;99.08
29505;BME280;16452;54.174;12.092;2022-10-18T10:13:24;102328.28;;;17.16;100.00
29505;BME280;16452;54.174;12.092;2022-10-18T10:16:01;102329.91;;;17.19;100.00
29505;BME280;16452;54.174;12.092;2022-10-18T10:18:35;102324.28;;;17.25;100.00
29505;BME280;16452;54.174;12.092;2022-10-18T10:21:06;102322.59;;;17.24;98.78
29505;BME280;16452;54.174;12.092;2022-10-18T10:23:53;102325.47;;;17.04;100.00
29505;BME280;16452;54.174;12.092;2022-10-18T10:26:35;102323.69;;;17.36;100.00
29505;BME280;16452;54.174;12.092;2022-10-18T10:29:04;102326.50;;;17.33;100.00
29505;BME280;16452;54.174;12.092;2022-10-18T10:32:02;102312.31;;;17.19;100.00
29505;BME280;16452;54.174;12.092;2022-10-18T10:34:28;102316.22;;;17.28;100.00
29505;BME280;16452;54.174;12.092;2022-10-18T10:36:55;102321.50;;;17.28;98.74
29505;BME280;16452;54.174;12.092;2022-10-18T10:39:23;102324.72;;;17.17;98.66
29505;BME280;16452;54.174;12.092;2022-10-18T10:41:57;102318.09;;;17.26;98.30
29505;BME280;16452;54.174;12.092;2022-10-18T10:44:29;102327.09;;;17.22;96.49
29505;BME280;16452;54.174;12.092;2022-10-18T10:46:57;102318.75;;;16.98;97.81
29505;BME280;16452;54.174;12.092;2022-10-18T10:49:41;102325.59;;;16.85;99.52
29505;BME280;16452;54.174;12.092;2022-10-18T10:52:18;102320.72;;;16.95;98.06
29505;BME280;16452;54.174;12.092;2022-10-18T10:54:45;102324.19;;;16.62;99.58
29505;BME280;16452;54.174;12.092;2022-10-18T10:59:55;102332.13;;;16.78;100.00
29505;BME280;16452;54.174;12.092;2022-10-18T11:02:29;102326.31;;;16.89;100.00
29505;BME280;16452;54.174;12.092;2022-10-18T11:05:21;102316.44;;;16.92;100.00
29505;BME280;16452;54.174;12.092;2022-10-18T11:07:51;102321.22;;;17.01;100.00
29505;BME280;16452;54.174;12.092;2022-10-18T11:10:22;102320.66;;;17.12;100.00
29505;BME280;16452;54.174;12.092;2022-10-18T11:12:55;102319.88;;;17.10;100.00
29505;BME280;16452;54.174;12.092;2022-10-18T11:15:42;102319.78;;;17.11;100.00
29505;BME280;16452;54.174;12.092;2022-10-18T11:18:32;102323.44;;;17.24;98.96
29505;BME280;16452;54.174;12.092;2022-10-18T11:21:22;102314.00;;;17.36;95.15
29505;BME280;16452;54.174;12.092;2022-10-18T11:23:50;102317.25;;;17.41;95.67
29505;BME280;16452;54.174;12.092;2022-10-18T11:29:34;102308.47;;;17.56;92.90
29505;BME280;16452;54.174;12.092;2022-10-18T11:32:17;102322.59;;;17.55;91.32
29505;BME280;16452;54.174;12.092;2022-10-18T11:35:38;102321.81;;;17.53;91.21
29505;BME280;16452;54.174;12.092;2022-10-18T11:38:41;102326.53;;;17.64;91.66
29505;BME280;16452;54.174;12.092;2022-10-18T11:42:04;102317.59;;;17.67;93.40
29505;BME280;16452;54.174;12.092;2022-10-18T11:47:01;102329.06;;;17.50;92.70
29505;BME280;16452;54.174;12.092;2022-10-18T12:04:18;102307.72;;;17.39;92.96
29505;BME280;16452;54.174;12.092;2022-10-18T12:06:47;102301.06;;;17.47;92.31
29505;BME280;16452;54.174;12.092;2022-10-18T12:09:40;102300.91;;;17.66;91.17
29505;BME280;16452;54.174;12.092;2022-10-18T12:12:27;102305.16;;;17.84;90.10
29505;BME280;16452;54.174;12.092;2022-10-18T12:15:02;102299.16;;;17.96;88.56
29505;BME280;16452;54.174;12.092;2022-10-18T12:20:32;102291.81;;;18.01;87.99
29505;BME280;16452;54.174;12.092;2022-10-18T12:22:59;102308.97;;;17.79;88.42
29505;BME280;16452;54.174;12.092;2022-10-18T12:25:28;102300.41;;;17.75;88.38
29505;BME280;16452;54.174;12.092;2022-10-18T12:33:52;102302.84;;;17.78;88.22
29505;BME280;16452;54.174;12.092;2022-10-18T12:38:57;102281.03;;;18.20;87.42
29505;BME280;16452;54.174;12.092;2022-10-18T12:41:28;102277.53;;;18.20;85.75
29505;BME280;16452;54.174;12.092;2022-10-18T12:44:20;102283.16;;;17.99;85.72
29505;BME280;16452;54.174;12.092;2022-10-18T12:46:53;102266.66;;;17.96;86.14
29505;BME280;16452;54.174;12.092;2022-10-18T12:49:37;102269.38;;;17.94;85.91
29505;BME280;16452;54.174;12.092;2022-10-18T12:52:21;102285.84;;;17.84;85.85
29505;BME280;16452;54.174;12.092;2022-10-18T12:55:30;102273.13;;;17.76;85.85
29505;BME280;16452;54.174;12.092;2022-10-18T13:17:04;102263.88;;;18.13;84.06
29505;BME280;16452;54.174;12.092;2022-10-18T13:23:09;102269.38;;;17.94;83.68
29505;BME280;16452;54.174;12.092;2022-10-18T13:26:24;102265.44;;;17.87;81.72
29505;BME280;16452;54.174;12.092;2022-10-18T13:32:04;102263.81;;;17.85;83.92
29505;BME280;16452;54.174;12.092;2022-10-18T13:34:38;102263.72;;;17.86;84.40
29505;BME280;16452;54.174;12.092;2022-10-18T13:39:37;102270.28;;;18.09;82.62
29505;BME280;16452;54.174;12.092;2022-10-18T13:44:39;102274.22;;;18.02;81.77
29505;BME280;16452;54.174;12.092;2022-10-18T13:52:33;102274.13;;;18.18;80.63
29505;BME280;16452;54.174;12.092;2022-10-18T14:01:39;102279.56;;;18.00;81.11
29505;BME280;16452;54.174;12.092;2022-10-18T14:07:17;102283.91;;;17.72;83.22
29505;BME280;16452;54.174;12.092;2022-10-18T14:09:49;102273.00;;;17.78;82.73
29505;BME280;16452;54.174;12.092;2022-10-18T14:12:39;102274.22;;;17.56;83.53
29505;BME280;16452;54.174;12.092;2022-10-18T14:15:16;102270.22;;;17.65;84.46
29505;BME280;16452;54.174;12.092;2022-10-18T14:17:50;102272.34;;;17.74;83.15
29505;BME280;16452;54.174;12.092;2022-10-18T14:20:34;102267.94;;;17.75;83.37
29505;BME280;16452;54.174;12.092;2022-10-18T14:23:18;102270.38;;;17.78;84.22
29505;BME280;16452;54.174;12.092;2022-10-18T14:25:46;102261.81;;;17.58;86.13
29505;BME280;16452;54.174;12.092;2022-10-18T14:28:18;102269.81;;;17.57;85.98
29505;BME280;16452;54.174;12.092;2022-10-18T14:30:51;102256.34;;;17.77;84.57
29505;BME280;16452;54.174;12.092;2022-10-18T14:33:43;102269.56;;;17.61;84.57
29505;BME280;16452;54.174;12.092;2022-10-18T14:36:21;102255.69;;;17.58;84.88
29505;BME280;16452;54.174;12.092;2022-10-18T14:41:34;102265.38;;;17.57;85.52
29505;BME280;16452;54.174;12.092;2022-10-18T14:44:15;102261.56;;;17.47;86.26
29505;BME280;16452;54.174;12.092;2022-10-18T14:46:46;102252.75;;;17.33;87.91
29505;BME280;16452;54.174;12.092;2022-10-18T14:49:14;102256.00;;;17.22;88.35
29505;BME280;16452;54.174;12.092;2022-10-18T14:51:43;102258.09;;;17.31;88.63
29505;BME280;16452;54.174;12.092;2022-10-18T14:54:22;102255.22;;;17.20;88.80
29505;BME280;16452;54.174;12.092;2022-10-18T14:56:48;102258.78;;;17.19;90.06
29505;BME280;16452;54.174;12.092;2022-10-18T14:59:20;102260.22;;;17.40;89.74
29505;BME280;16452;54.174;12.092;2022-10-18T15:02:00;102261.50;;;17.33;89.90
29505;BME280;16452;54.174;12.092;2022-10-18T15:04:27;102259.03;;;17.14;91.32
29505;BME280;16452;54.174;12.092;2022-10-18T15:07:05;102259.72;;;17.34;91.44